createdAt,value
2023-01-08T00:01:10.854Z,3.30
2023-01-08T00:03:38.545Z,3.00
2023-01-08T00:06:07.836Z,2.70
2023-01-08T00:08:34.884Z,2.90
2023-01-08T00:11:01.507Z,3.80
2023-01-08T00:13:28.990Z,3.40
2023-01-08T00:15:55.436Z,3.70
2023-01-08T00:18:21.976Z,2.80
2023-01-08T00:20:48.894Z,4.30
2023-01-08T00:23:17.896Z,4.70
2023-01-08T00:25:44.734Z,3.60
2023-01-08T00:28:11.270Z,3.70
2023-01-08T00:30:38.231Z,4.40
2023-01-08T00:33:04.916Z,3.20
2023-01-08T00:35:31.409Z,3.10
2023-01-08T00:37:57.835Z,3.30
2023-01-08T00:40:24.441Z,3.30
2023-01-08T00:42:51.040Z,3.30
2023-01-08T00:45:17.453Z,2.80
2023-01-08T00:47:43.889Z,3.10
2023-01-08T00:50:10.629Z,3.80
2023-01-08T00:52:37.068Z,4.10
2023-01-08T00:55:03.805Z,4.20
2023-01-08T00:57:35.118Z,3.30
2023-01-08T01:00:01.819Z,4.00
2023-01-08T01:02:28.613Z,3.00
2023-01-08T01:04:55.227Z,3.70
2023-01-08T01:07:21.799Z,3.50
2023-01-08T01:09:48.330Z,3.50
2023-01-08T01:12:15.071Z,3.50
2023-01-08T01:14:41.798Z,3.50
2023-01-08T01:17:08.323Z,4.00
2023-01-08T01:19:34.723Z,3.50
2023-01-08T01:22:01.542Z,3.30
2023-01-08T01:24:27.951Z,3.20
2023-01-08T01:26:56.392Z,3.50
2023-01-08T01:29:23.822Z,3.20
2023-01-08T01:31:50.436Z,3.00
2023-01-08T01:34:17.011Z,4.10
2023-01-08T01:36:43.555Z,3.40
2023-01-08T01:39:10.413Z,4.00
2023-01-08T01:41:43.362Z,4.30
2023-01-08T01:44:34.815Z,4.30
2023-01-08T01:47:07.880Z,3.10
2023-01-08T01:49:34.567Z,4.00
2023-01-08T01:52:05.907Z,4.50
2023-01-08T01:54:32.766Z,3.90
2023-01-08T01:57:00.875Z,3.30
2023-01-08T01:59:27.683Z,3.70
2023-01-08T02:01:55.513Z,3.90
2023-01-08T02:04:22.130Z,3.70
2023-01-08T02:07:02.252Z,3.80
2023-01-08T02:10:00.139Z,4.10
2023-01-08T02:12:36.334Z,4.10
2023-01-08T02:15:08.969Z,4.40
2023-01-08T02:17:50.391Z,4.60
2023-01-08T02:20:32.006Z,4.20
2023-01-08T02:23:36.453Z,3.90
2023-01-08T02:26:13.570Z,3.90
2023-01-08T02:28:59.126Z,4.90
2023-01-08T02:31:28.632Z,4.30
2023-01-08T02:33:55.137Z,4.10
2023-01-08T02:36:31.740Z,4.00
2023-01-08T02:39:24.159Z,4.60
2023-01-08T02:41:56.630Z,4.80
2023-01-08T02:44:47.604Z,4.40
2023-01-08T02:47:27.648Z,4.40
2023-01-08T02:50:17.029Z,4.20
2023-01-08T02:52:58.955Z,4.00
2023-01-08T02:55:27.052Z,4.50
2023-01-08T02:57:53.832Z,5.60
2023-01-08T03:00:21.189Z,4.70
2023-01-08T03:02:52.330Z,4.90
2023-01-08T03:05:25.279Z,5.70
2023-01-08T03:07:51.965Z,3.90
2023-01-08T03:10:22.964Z,3.80
2023-01-08T03:12:59.525Z,4.20
2023-01-08T03:15:31.962Z,4.30
2023-01-08T03:18:04.952Z,4.60
2023-01-08T03:20:33.085Z,4.90
2023-01-08T03:23:03.127Z,4.90
2023-01-08T03:25:30.474Z,5.10
2023-01-08T03:28:05.226Z,3.80
2023-01-08T03:30:32.775Z,3.80
2023-01-08T03:33:01.569Z,4.30
2023-01-08T03:35:30.647Z,5.00
2023-01-08T03:38:05.739Z,3.90
2023-01-08T03:40:47.171Z,3.80
2023-01-08T03:43:14.046Z,4.90
2023-01-08T03:45:48.933Z,4.40
2023-01-08T03:48:16.899Z,3.60
2023-01-08T03:50:43.366Z,4.10
2023-01-08T03:53:09.841Z,5.60
2023-01-08T03:55:36.420Z,4.30
2023-01-08T03:58:03.097Z,3.90
2023-01-08T04:00:30.000Z,4.10
2023-01-08T04:02:56.465Z,4.30
2023-01-08T04:05:22.870Z,4.20
2023-01-08T04:07:49.296Z,3.90
2023-01-08T04:10:15.804Z,3.80
2023-01-08T04:12:43.396Z,4.10
2023-01-08T04:15:10.279Z,4.60
2023-01-08T04:17:36.756Z,3.50
2023-01-08T04:20:03.442Z,3.50
2023-01-08T04:22:29.871Z,4.00
2023-01-08T04:24:56.307Z,3.80
2023-01-08T04:27:22.738Z,5.30
2023-01-08T04:29:49.254Z,5.00
2023-01-08T04:32:15.786Z,3.20
2023-01-08T04:34:42.204Z,3.70
2023-01-08T04:37:08.743Z,4.40
2023-01-08T04:39:35.220Z,4.00
2023-01-08T04:42:01.766Z,4.10
2023-01-08T04:44:28.237Z,4.90
2023-01-08T04:46:54.715Z,5.10
2023-01-08T04:49:21.141Z,5.10
2023-01-08T04:51:47.509Z,5.40
2023-01-08T04:54:13.987Z,4.60
2023-01-08T04:56:40.459Z,5.30
2023-01-08T04:59:07.021Z,3.90
2023-01-08T05:01:33.636Z,4.90
2023-01-08T05:04:03.120Z,4.70
2023-01-08T05:06:31.345Z,5.50
2023-01-08T05:08:58.485Z,4.00
2023-01-08T05:11:25.395Z,3.50
2023-01-08T05:13:52.948Z,3.90
2023-01-08T05:16:19.567Z,4.40
2023-01-08T05:18:46.265Z,2.90
2023-01-08T05:21:13.831Z,3.40
2023-01-08T05:23:44.165Z,4.20
2023-01-08T05:26:10.645Z,3.60
2023-01-08T05:28:37.135Z,3.60
2023-01-08T05:31:03.566Z,4.30
2023-01-08T05:33:30.525Z,4.20
2023-01-08T05:35:56.931Z,3.60
2023-01-08T05:38:23.630Z,5.00
2023-01-08T05:40:53.651Z,4.10
2023-01-08T05:43:20.167Z,3.70
2023-01-08T05:45:46.597Z,4.10
2023-01-08T05:48:13.061Z,4.90
2023-01-08T05:50:39.640Z,4.00
2023-01-08T05:53:07.700Z,3.70
2023-01-08T05:55:34.534Z,4.20
2023-01-08T05:58:02.827Z,4.20
2023-01-08T06:00:30.324Z,5.20
2023-01-08T06:02:56.899Z,3.90
2023-01-08T06:05:23.362Z,4.70
2023-01-08T06:07:50.032Z,4.10
2023-01-08T06:10:16.603Z,5.70
2023-01-08T06:12:43.068Z,4.30
2023-01-08T06:15:10.604Z,4.10
2023-01-08T06:17:37.020Z,4.40
2023-01-08T06:20:03.727Z,4.50
2023-01-08T06:22:30.233Z,4.70
2023-01-08T06:24:57.205Z,4.50
2023-01-08T06:27:23.627Z,4.90
2023-01-08T06:29:50.043Z,5.80
2023-01-08T06:32:16.749Z,3.90
2023-01-08T06:34:43.305Z,5.00
2023-01-08T06:37:09.777Z,4.40
2023-01-08T06:39:36.311Z,5.40
2023-01-08T06:42:02.819Z,4.10
2023-01-08T06:44:29.197Z,4.60
2023-01-08T06:46:55.736Z,3.90
2023-01-08T06:49:23.044Z,4.20
2023-01-08T06:51:49.571Z,5.40
2023-01-08T06:54:16.106Z,5.30
2023-01-08T06:56:53.020Z,4.50
2023-01-08T06:59:19.960Z,5.30
2023-01-08T07:01:46.591Z,4.60
2023-01-08T07:04:13.140Z,6.00
2023-01-08T07:06:39.645Z,4.20
2023-01-08T07:09:06.099Z,4.60
2023-01-08T07:11:33.507Z,6.40
2023-01-08T07:13:59.907Z,4.00
2023-01-08T07:16:26.553Z,3.80
2023-01-08T07:18:53.047Z,4.30
2023-01-08T07:21:21.063Z,4.10
2023-01-08T07:23:49.423Z,4.50
2023-01-08T07:26:16.512Z,5.20
2023-01-08T07:28:43.500Z,4.20
2023-01-08T07:31:10.405Z,4.60
2023-01-08T07:33:37.950Z,4.00
2023-01-08T07:36:05.598Z,5.30
2023-01-08T07:38:32.012Z,4.50
2023-01-08T07:40:59.197Z,4.70
2023-01-08T07:43:26.455Z,4.60
2023-01-08T07:45:52.983Z,4.50
2023-01-08T07:48:19.495Z,5.40
2023-01-08T07:50:46.433Z,4.30
2023-01-08T07:53:16.897Z,5.50
2023-01-08T07:55:43.530Z,5.20
2023-01-08T07:58:14.835Z,5.00
2023-01-08T08:00:41.856Z,4.40
2023-01-08T08:03:11.639Z,4.50
2023-01-08T08:05:38.664Z,4.30
2023-01-08T08:08:14.449Z,4.90
2023-01-08T08:10:42.305Z,5.20
2023-01-08T08:13:09.266Z,5.40
2023-01-08T08:15:37.447Z,5.40
2023-01-08T08:18:04.713Z,4.60
2023-01-08T08:20:31.675Z,4.10
2023-01-08T08:23:09.575Z,3.50
2023-01-08T08:25:36.734Z,5.10
2023-01-08T08:28:04.328Z,3.90
2023-01-08T08:30:33.171Z,4.00
2023-01-08T08:33:02.559Z,3.80
2023-01-08T08:35:30.457Z,3.80
2023-01-08T08:37:57.632Z,4.00
2023-01-08T08:40:25.041Z,3.80
2023-01-08T08:43:02.461Z,3.90
2023-01-08T08:45:29.767Z,4.00
2023-01-08T08:47:56.255Z,4.10
2023-01-08T08:50:23.340Z,3.60
2023-01-08T08:52:49.861Z,3.70
2023-01-08T08:55:17.483Z,3.70
2023-01-08T08:57:45.723Z,3.40
2023-01-08T09:00:13.623Z,3.20
2023-01-08T09:02:40.255Z,3.90
2023-01-08T09:05:07.018Z,3.60
2023-01-08T09:07:33.573Z,4.00
2023-01-08T09:10:00.067Z,3.80
2023-01-08T09:12:26.485Z,3.20
2023-01-08T09:14:54.786Z,4.20
2023-01-08T09:17:21.690Z,3.30
2023-01-08T09:19:48.173Z,3.10
2023-01-08T09:22:14.671Z,3.10
2023-01-08T09:24:41.265Z,3.10
2023-01-08T09:27:09.096Z,2.80
2023-01-08T09:29:37.497Z,2.90
2023-01-08T09:32:07.203Z,3.00
2023-01-08T09:34:36.170Z,2.60
2023-01-08T09:37:03.553Z,3.20
2023-01-08T09:39:30.052Z,3.60
2023-01-08T09:41:58.580Z,2.70
2023-01-08T09:44:30.176Z,3.60
2023-01-08T09:46:56.730Z,3.40
2023-01-08T09:49:29.317Z,2.50
2023-01-08T09:51:55.999Z,2.10
2023-01-08T09:54:26.168Z,2.70
2023-01-08T09:56:53.462Z,2.70
2023-01-08T09:59:20.322Z,2.90
2023-01-08T10:01:50.861Z,2.20
2023-01-08T10:04:21.175Z,2.40
2023-01-08T10:07:08.645Z,2.60
2023-01-08T10:09:35.152Z,2.00
2023-01-08T10:12:04.780Z,1.90
2023-01-08T10:14:35.187Z,1.90
2023-01-08T10:17:17.241Z,1.90
2023-01-08T10:19:45.357Z,3.20
2023-01-08T10:22:16.590Z,1.60
2023-01-08T10:24:43.527Z,2.20
2023-01-08T10:27:23.894Z,1.80
2023-01-08T10:29:51.879Z,1.80
2023-01-08T10:32:38.572Z,1.50
2023-01-08T10:35:06.823Z,1.80
2023-01-08T10:37:39.368Z,1.50
2023-01-08T10:40:30.417Z,1.40
2023-01-08T10:43:05.491Z,1.40
2023-01-08T10:45:32.988Z,1.80
2023-01-08T10:48:01.803Z,1.60
2023-01-08T10:50:30.739Z,2.20
2023-01-08T10:53:25.334Z,1.70
2023-01-08T10:56:03.820Z,1.40
2023-01-08T10:58:40.714Z,1.70
2023-01-08T11:01:13.045Z,2.30
2023-01-08T11:03:41.056Z,2.10
2023-01-08T11:06:20.220Z,1.70
2023-01-08T11:08:52.863Z,1.70
2023-01-08T11:11:20.000Z,1.50
2023-01-08T11:13:57.711Z,1.50
2023-01-08T11:16:35.105Z,1.60
2023-01-08T11:19:01.641Z,1.50
2023-01-08T11:21:31.577Z,2.20
2023-01-08T11:24:24.432Z,1.80
2023-01-08T11:27:00.521Z,1.70
2023-01-08T11:29:33.598Z,1.30
2023-01-08T11:32:15.403Z,1.40
2023-01-08T11:35:00.637Z,1.40
2023-01-08T11:37:40.539Z,1.40
2023-01-08T11:40:35.754Z,1.50
2023-01-08T11:43:08.133Z,1.50
2023-01-08T11:45:34.574Z,1.60
2023-01-08T11:48:38.608Z,1.40
2023-01-08T11:51:26.180Z,1.50
2023-01-08T11:54:30.429Z,1.70
2023-01-08T11:57:36.043Z,1.40
2023-01-08T12:00:46.382Z,1.80
2023-01-08T12:03:31.928Z,2.30
2023-01-08T12:06:37.063Z,1.20
2023-01-08T12:09:40.660Z,1.10
2023-01-08T12:12:26.680Z,1.40
2023-01-08T12:15:11.068Z,1.60
2023-01-08T12:17:43.349Z,1.10
2023-01-08T12:20:27.048Z,1.50
2023-01-08T12:23:07.556Z,1.10
2023-01-08T12:25:59.138Z,1.40
2023-01-08T12:28:56.756Z,1.10
2023-01-08T12:32:20.725Z,1.80
2023-01-08T12:34:47.207Z,1.30
2023-01-08T12:37:28.992Z,1.60
2023-01-08T12:40:07.457Z,1.40
2023-01-08T12:42:40.207Z,1.70
2023-01-08T12:45:16.273Z,2.20
2023-01-08T12:47:47.442Z,2.00
2023-01-08T12:50:13.773Z,2.00
2023-01-08T12:52:55.813Z,3.40
2023-01-08T12:55:37.441Z,2.70
2023-01-08T12:58:16.107Z,4.30
2023-01-08T13:01:00.930Z,3.20
2023-01-08T13:03:29.804Z,2.20
2023-01-08T13:06:15.566Z,1.70
2023-01-08T13:08:48.562Z,3.10
2023-01-08T13:11:25.032Z,3.00
2023-01-08T13:14:07.918Z,2.30
2023-01-08T13:16:39.430Z,3.80
2023-01-08T13:19:07.805Z,3.00
2023-01-08T13:21:43.201Z,1.80
2023-01-08T13:24:09.552Z,2.90
2023-01-08T13:26:36.782Z,3.90
2023-01-08T13:29:27.984Z,2.60
2023-01-08T13:31:54.484Z,3.60
2023-01-08T13:34:35.988Z,2.00
2023-01-08T13:37:02.374Z,3.80
2023-01-08T13:39:39.210Z,2.50
2023-01-08T13:42:20.029Z,2.00
2023-01-08T13:44:52.463Z,2.70
2023-01-08T13:47:26.324Z,2.90
2023-01-08T13:49:54.777Z,2.80
2023-01-08T13:52:31.871Z,2.10
2023-01-08T13:55:00.467Z,1.60
2023-01-08T13:57:36.257Z,2.00
2023-01-08T14:00:05.147Z,1.60
2023-01-08T14:02:44.771Z,4.90
2023-01-08T14:05:30.654Z,2.10
2023-01-08T14:07:58.945Z,2.20
2023-01-08T14:10:27.011Z,1.90
2023-01-08T14:12:54.411Z,1.60
2023-01-08T14:15:27.423Z,1.30
2023-01-08T14:17:55.974Z,1.70
2023-01-08T14:20:34.457Z,2.70
2023-01-08T14:23:02.418Z,2.80
2023-01-08T14:25:29.477Z,1.70
2023-01-08T14:27:58.831Z,1.70
2023-01-08T14:30:26.152Z,2.60
2023-01-08T14:32:54.555Z,2.30
2023-01-08T14:35:27.668Z,1.80
2023-01-08T14:37:54.710Z,1.80
2023-01-08T14:40:30.418Z,2.00
2023-01-08T14:43:01.356Z,2.20
2023-01-08T14:45:33.996Z,3.80
2023-01-08T14:48:09.428Z,2.40
2023-01-08T14:50:38.817Z,2.60
2023-01-08T14:53:06.525Z,2.00
2023-01-08T14:55:37.177Z,2.70
2023-01-08T14:58:03.845Z,2.80
2023-01-08T15:00:31.660Z,3.60
2023-01-08T15:02:58.359Z,3.40
2023-01-08T15:05:30.475Z,3.20
2023-01-08T15:08:01.631Z,3.60
2023-01-08T15:10:41.363Z,2.70
2023-01-08T15:13:23.015Z,2.20
2023-01-08T15:15:59.288Z,2.40
2023-01-08T15:18:26.262Z,2.30
2023-01-08T15:20:53.730Z,3.10
2023-01-08T15:23:34.152Z,2.70
2023-01-08T15:26:00.728Z,2.90
2023-01-08T15:28:27.399Z,3.10
2023-01-08T15:30:54.102Z,2.40
2023-01-08T15:33:23.795Z,3.10
2023-01-08T15:35:50.909Z,2.80
2023-01-08T15:38:21.095Z,3.00
2023-01-08T15:40:48.328Z,2.60
2023-01-08T15:43:16.276Z,2.80
2023-01-08T15:45:45.883Z,2.10
2023-01-08T15:48:12.530Z,2.20
2023-01-08T15:50:41.371Z,2.10
2023-01-08T15:53:15.710Z,2.10
2023-01-08T15:55:43.600Z,3.10
2023-01-08T15:58:12.321Z,3.50
2023-01-08T16:00:40.164Z,3.40
2023-01-08T16:03:07.417Z,4.10
2023-01-08T16:05:34.838Z,4.00
2023-01-08T16:08:01.285Z,5.80
2023-01-08T16:10:29.141Z,4.30
2023-01-08T16:12:55.933Z,6.60
2023-01-08T16:15:22.814Z,9.80
2023-01-08T16:17:49.170Z,9.60
2023-01-08T16:20:16.936Z,7.00
2023-01-08T16:22:43.718Z,3.60
2023-01-08T16:25:10.532Z,2.50
2023-01-08T16:27:41.258Z,2.20
2023-01-08T16:30:15.487Z,1.90
2023-01-08T16:32:42.687Z,2.00
2023-01-08T16:35:10.576Z,2.50
2023-01-08T16:37:37.354Z,4.20
2023-01-08T16:40:04.104Z,5.10
2023-01-08T16:42:30.657Z,6.80
2023-01-08T16:44:57.082Z,7.40
2023-01-08T16:47:23.541Z,6.70
2023-01-08T16:49:51.202Z,3.80
2023-01-08T16:52:18.173Z,2.70
2023-01-08T16:54:45.494Z,3.00
2023-01-08T16:57:12.081Z,2.40
2023-01-08T16:59:38.545Z,3.30
2023-01-08T17:02:05.460Z,2.90
2023-01-08T17:04:32.364Z,2.50
2023-01-08T17:06:58.804Z,3.20
2023-01-08T17:09:25.537Z,3.20
2023-01-08T17:11:51.947Z,3.80
2023-01-08T17:14:18.423Z,4.40
2023-01-08T17:16:49.026Z,2.90
2023-01-08T17:19:16.319Z,3.20
2023-01-08T17:21:42.832Z,2.50
2023-01-08T17:24:09.451Z,2.00
2023-01-08T17:26:35.850Z,2.10
2023-01-08T17:29:02.300Z,2.30
2023-01-08T17:31:28.984Z,1.30
2023-01-08T17:33:55.440Z,2.00
2023-01-08T17:36:24.963Z,2.50
2023-01-08T17:38:53.563Z,1.80
2023-01-08T17:41:40.623Z,2.30
2023-01-08T17:44:09.221Z,2.40
2023-01-08T17:46:37.131Z,2.00
2023-01-08T17:49:04.727Z,1.60
2023-01-08T17:51:32.403Z,1.20
2023-01-08T17:53:59.647Z,2.30
2023-01-08T17:56:26.511Z,1.60
2023-01-08T17:58:53.077Z,1.60
2023-01-08T18:01:19.683Z,1.40
2023-01-08T18:03:46.305Z,1.70
2023-01-08T18:06:13.309Z,2.30
2023-01-08T18:08:40.555Z,1.90
2023-01-08T18:11:08.773Z,3.30
2023-01-08T18:13:36.421Z,4.60
2023-01-08T18:16:12.222Z,3.10
2023-01-08T18:18:39.537Z,2.10
2023-01-08T18:21:06.935Z,4.00
2023-01-08T18:23:33.919Z,2.80
2023-01-08T18:26:08.998Z,1.90
2023-01-08T18:28:36.653Z,1.90
2023-01-08T18:31:06.859Z,1.80
2023-01-08T18:33:33.735Z,2.30
2023-01-08T18:36:03.101Z,2.40
2023-01-08T18:38:29.605Z,2.10
2023-01-08T18:40:57.705Z,3.10
2023-01-08T18:43:25.647Z,2.70
2023-01-08T18:45:52.435Z,2.80
2023-01-08T18:48:18.909Z,1.90
2023-01-08T18:50:46.386Z,2.20
2023-01-08T18:53:12.767Z,2.90
2023-01-08T18:55:39.318Z,2.50
2023-01-08T18:58:05.901Z,2.60
2023-01-08T19:01:19.834Z,2.70
2023-01-08T19:03:46.683Z,2.10
2023-01-08T19:06:14.956Z,2.30
2023-01-08T19:08:43.032Z,2.10
2023-01-08T19:11:11.300Z,1.70
2023-01-08T19:13:38.329Z,2.20
2023-01-08T19:16:06.613Z,2.10
2023-01-08T19:18:33.578Z,2.00
2023-01-08T19:21:00.733Z,2.00
2023-01-08T19:23:27.897Z,2.00
2023-01-08T19:25:54.886Z,2.60
2023-01-08T19:28:21.790Z,2.30
2023-01-08T19:30:55.939Z,1.80
2023-01-08T19:33:22.845Z,2.20
2023-01-08T19:35:50.016Z,2.50
2023-01-08T19:38:17.108Z,2.40
2023-01-08T19:40:43.983Z,2.70
2023-01-08T19:43:31.071Z,2.20
2023-01-08T19:46:04.779Z,2.20
2023-01-08T19:48:31.741Z,2.20
2023-01-08T19:50:58.516Z,2.10
2023-01-08T19:53:25.323Z,2.30
2023-01-08T19:55:52.366Z,2.90
2023-01-08T19:58:20.399Z,2.00
2023-01-08T20:00:47.229Z,2.20
2023-01-08T20:03:17.033Z,1.50
2023-01-08T20:05:43.778Z,2.40
2023-01-08T20:08:10.534Z,2.60
2023-01-08T20:10:37.268Z,1.60
2023-01-08T20:13:04.347Z,1.90
2023-01-08T20:15:32.525Z,1.70
2023-01-08T20:17:59.524Z,2.20
2023-01-08T20:20:26.589Z,1.80
2023-01-08T20:22:53.469Z,2.00
2023-01-08T20:25:20.223Z,2.00
2023-01-08T20:27:46.972Z,2.60
2023-01-08T20:30:14.719Z,2.40
2023-01-08T20:32:41.848Z,2.80
2023-01-08T20:35:09.072Z,2.10
2023-01-08T20:37:35.978Z,1.90
2023-01-08T20:40:02.659Z,2.50
2023-01-08T20:42:33.916Z,2.20
2023-01-08T20:45:01.962Z,2.70
2023-01-08T20:47:28.705Z,3.20
2023-01-08T20:49:55.708Z,2.00
2023-01-08T20:52:22.521Z,2.00
2023-01-08T20:54:49.396Z,2.30
2023-01-08T20:57:16.107Z,2.10
2023-01-08T20:59:43.140Z,2.30
2023-01-08T21:02:11.420Z,2.70
2023-01-08T21:04:41.395Z,2.50
2023-01-08T21:07:08.549Z,3.00
2023-01-08T21:09:35.562Z,2.40
2023-01-08T21:12:02.598Z,2.00
2023-01-08T21:14:29.398Z,1.70
2023-01-08T21:16:56.710Z,2.10
2023-01-08T21:19:23.694Z,2.50
2023-01-08T21:21:50.786Z,3.00
2023-01-08T21:24:17.580Z,2.80
2023-01-08T21:26:45.163Z,2.50
2023-01-08T21:29:12.243Z,2.40
2023-01-08T21:31:39.338Z,2.00
2023-01-08T21:34:08.435Z,2.90
2023-01-08T21:36:35.092Z,1.90
2023-01-08T21:39:01.899Z,2.80
2023-01-08T21:41:48.376Z,2.00
2023-01-08T21:44:41.781Z,3.00
2023-01-08T21:47:12.165Z,2.20
2023-01-08T21:49:38.910Z,2.00
2023-01-08T21:52:24.467Z,2.60
2023-01-08T21:54:51.752Z,2.00
2023-01-08T21:57:18.635Z,2.00
2023-01-08T21:59:48.231Z,3.20
2023-01-08T22:02:16.737Z,2.90
2023-01-08T22:04:44.586Z,2.70
2023-01-08T22:07:11.670Z,2.20
2023-01-08T22:09:38.630Z,1.80
2023-01-08T22:12:06.762Z,3.30
2023-01-08T22:14:34.165Z,3.30
2023-01-08T22:17:03.883Z,3.70
2023-01-08T22:19:30.807Z,3.00
2023-01-08T22:21:57.816Z,3.10
2023-01-08T22:24:24.732Z,3.80
2023-01-08T22:26:51.752Z,3.10
2023-01-08T22:29:18.671Z,3.50
2023-01-08T22:31:45.545Z,5.00
2023-01-08T22:34:17.012Z,4.00
2023-01-08T22:36:44.863Z,6.00
2023-01-08T22:39:11.994Z,3.60
2023-01-08T22:41:39.023Z,4.80
2023-01-08T22:44:05.873Z,7.00
2023-01-08T22:46:32.833Z,3.80
2023-01-08T22:48:59.580Z,4.90
2023-01-08T22:51:29.473Z,4.70
2023-01-08T22:53:57.889Z,4.00
2023-01-08T22:56:25.841Z,4.10
2023-01-08T22:58:52.873Z,5.80
2023-01-08T23:01:21.285Z,6.00
2023-01-08T23:03:49.543Z,4.70
2023-01-08T23:06:17.827Z,5.70
2023-01-08T23:08:44.799Z,4.50
2023-01-08T23:11:13.811Z,5.10
2023-01-08T23:13:41.006Z,7.10
2023-01-08T23:16:10.159Z,3.40
2023-01-08T23:18:37.742Z,4.40
2023-01-08T23:21:06.975Z,4.50
2023-01-08T23:23:34.101Z,3.80
2023-01-08T23:26:09.444Z,3.10
2023-01-08T23:28:36.491Z,3.30
2023-01-08T23:31:11.889Z,3.80
2023-01-08T23:33:38.805Z,4.80
2023-01-08T23:36:06.307Z,3.50
2023-01-08T23:38:33.307Z,4.20
2023-01-08T23:41:00.480Z,6.50
2023-01-08T23:43:27.301Z,6.30
2023-01-08T23:45:55.629Z,3.40
2023-01-08T23:48:22.852Z,5.60
2023-01-08T23:50:49.833Z,4.30
2023-01-08T23:53:16.887Z,4.90
2023-01-08T23:55:43.957Z,4.80
2023-01-08T23:58:11.125Z,4.30
